Archival Weather

Bridgeport/Sikorsky

Bridgeport, Connecticut (KBDR)

Report from: Friday, February 23, 2024 6:52 PM EST
Current time: Wednesday, May 29, 2024 9:19 PM EDT

Current weather – Weather history – Daily summaries
Weather forecast

Temperature6.0°C (42.8°F)
Dew point3.0°C (37.4°F)
Winds Calm
Visibility10 mi. (16.1 km)
Clouds Ceiling: Overcast 11,000 ft. (3,353 m)
Altimeter29.45 in.Hg (997 mB)
Relative humidity81 %
Density altitude-427 ft. (-130 m)
Flight conditions Visual Meteorological Conditions
Raw dataKBDR 232352Z 00000KT 10SM OVC110 06/03 A2945 RMK ASOS SCREEN NOT SHOWING HOURLY DATA
An error has occurred. This application may no longer respond until reloaded. Reload 🗙